Time,TemperatureF,DewpointF,PressureIn,WindDirection,WindDirectionDegrees,WindSpeedMPH,WindSpeedGustMPH,Humidity,HourlyPrecipIn,Conditions,Clouds,dailyrainin,SoftwareType,DateUTC
2013-05-26 00:00:00,41.5,33.9,29.99,NW,306,3.0,5.0,74,0.00,CLR,,0.00,WeatherDisplay:10.37,2013-05-25 23:00:00,
2013-05-26 00:10:00,40.4,32.4,29.99,WNW,300,0.0,3.0,73,0.00,CLR,,0.00,WeatherDisplay:10.37,2013-05-25 23:10:00,
2013-05-26 00:20:00,38.7,30.4,29.99,WNW,301,0.0,2.0,72,0.00,CLR,,0.00,WeatherDisplay:10.37,2013-05-25 23:20:00,
2013-05-26 00:30:00,37.9,29.7,29.99,WNW,302,2.0,5.0,72,0.00,CLR,,0.00,WeatherDisplay:10.37,2013-05-25 23:30:00,
2013-05-26 00:40:00,38.3,31.1,29.99,NW,308,5.0,6.0,75,0.00,CLR,,0.00,WeatherDisplay:10.37,2013-05-25 23:40:00,
2013-05-26 00:50:00,39.6,32.9,29.98,NW,305,6.0,7.0,77,0.00,CLR,,0.00,WeatherDisplay:10.37,2013-05-25 23:50:00,
2013-05-26 01:00:00,39.7,33.1,29.98,WNW,299,5.0,7.0,77,0.00,CLR,,0.00,WeatherDisplay:10.37,2013-05-26 00:00:00,
2013-05-26 01:10:00,39.7,33.1,29.97,NW,304,6.0,10.0,77,0.00,CLR,,0.00,WeatherDisplay:10.37,2013-05-26 00:10:00,
2013-05-26 01:20:00,39.9,33.6,29.97,NW,309,5.0,9.0,78,0.00,CLR,,0.00,WeatherDisplay:10.37,2013-05-26 00:20:00,
2013-05-26 01:30:00,39.4,32.8,29.97,WNW,299,3.0,6.0,77,0.00,CLR,,0.00,WeatherDisplay:10.37,2013-05-26 00:30:00,
2013-05-26 01:40:00,38.6,31.7,29.97,WNW,297,5.0,6.0,76,0.00,CLR,,0.00,WeatherDisplay:10.37,2013-05-26 00:40:00,
2013-05-26 01:50:00,37.7,30.8,29.97,West,275,2.0,5.0,76,0.00,CLR,,0.00,WeatherDisplay:10.37,2013-05-26 00:50:00,
2013-05-26 02:00:00,36.5,29.7,29.97,West,270,1.0,4.0,76,0.00,CLR,,0.00,WeatherDisplay:10.37,2013-05-26 01:00:00,
2013-05-26 02:10:00,36.0,29.1,29.96,West,280,2.0,4.0,76,0.00,CLR,,0.00,WeatherDisplay:10.37,2013-05-26 01:10:00,
2013-05-26 02:20:00,36.0,29.4,29.96,WNW,300,3.0,5.0,77,0.00,CLR,,0.00,WeatherDisplay:10.37,2013-05-26 01:20:00,
2013-05-26 02:30:00,35.8,29.6,29.96,WNW,292,2.0,4.0,78,0.00,CLR,,0.00,WeatherDisplay:10.37,2013-05-26 01:30:00,
2013-05-26 02:40:00,35.8,29.9,29.96,WNW,289,3.0,5.0,79,0.00,CLR,,0.00,WeatherDisplay:10.37,2013-05-26 01:40:00,
2013-05-26 02:50:00,35.8,30.2,29.96,WNW,297,2.0,4.0,80,0.00,CLR,,0.00,WeatherDisplay:10.37,2013-05-26 01:50:00,
2013-05-26 03:00:00,35.4,29.9,29.96,West,276,3.0,5.0,80,0.00,CLR,,0.00,WeatherDisplay:10.37,2013-05-26 02:00:00,
2013-05-26 03:10:00,35.1,29.8,29.96,West,269,3.0,5.0,81,0.00,CLR,,0.00,WeatherDisplay:10.37,2013-05-26 02:10:00,
2013-05-26 03:20:00,34.6,29.4,29.95,West,270,2.0,6.0,81,0.00,CLR,,0.00,WeatherDisplay:10.37,2013-05-26 02:20:00,
2013-05-26 03:30:00,33.3,28.1,29.96,West,270,1.0,3.0,81,0.00,CLR,,0.00,WeatherDisplay:10.37,2013-05-26 02:30:00,
2013-05-26 03:40:00,32.9,27.7,29.95,West,270,0.0,3.0,81,0.00,CLR,,0.00,WeatherDisplay:10.37,2013-05-26 02:40:00,
2013-05-26 03:50:00,32.7,27.5,29.95,West,270,0.0,2.0,81,0.00,CLR,,0.00,WeatherDisplay:10.37,2013-05-26 02:50:00,
2013-05-26 04:00:00,32.4,27.2,29.95,West,270,1.0,1.0,81,0.00,CLR,,0.00,WeatherDisplay:10.37,2013-05-26 03:00:00,
2013-05-26 04:10:00,32.5,27.7,29.95,West,270,0.0,2.0,82,0.00,CLR,,0.00,WeatherDisplay:10.37,2013-05-26 03:10:00,
2013-05-26 04:20:00,32.5,27.7,29.94,West,270,0.0,2.0,82,0.00,CLR,,0.00,WeatherDisplay:10.37,2013-05-26 03:20:00,
2013-05-26 04:30:00,32.9,28.0,29.94,West,270,0.0,3.0,82,0.00,CLR,,0.00,WeatherDisplay:10.37,2013-05-26 03:30:00,
2013-05-26 04:40:00,33.1,28.5,29.95,West,270,1.0,2.0,83,0.00,CLR,,0.00,WeatherDisplay:10.37,2013-05-26 03:40:00,
2013-05-26 04:50:00,33.8,29.2,29.95,West,270,0.0,3.0,83,0.00,CLR,,0.00,WeatherDisplay:10.37,2013-05-26 03:50:00,
2013-05-26 05:00:00,34.3,30.0,29.95,West,270,0.0,1.0,84,0.00,CLR,,0.00,WeatherDisplay:10.37,2013-05-26 04:00:00,
2013-05-26 05:10:00,35.2,31.2,29.95,West,270,0.0,0.0,85,0.00,CLR,,0.00,WeatherDisplay:10.37,2013-05-26 04:10:00,
2013-05-26 05:20:00,36.5,32.4,29.95,West,270,0.0,0.0,85,0.00,CLR,,0.00,WeatherDisplay:10.37,2013-05-26 04:20:00,
2013-05-26 05:30:00,37.6,33.8,29.95,West,270,1.0,2.0,86,0.00,CLR,,0.00,WeatherDisplay:10.37,2013-05-26 04:30:00,
2013-05-26 05:40:00,39.2,35.7,29.95,West,270,1.0,4.0,87,0.00,CLR,,0.00,WeatherDisplay:10.37,2013-05-26 04:40:00,
2013-05-26 05:50:00,42.1,38.5,29.95,West,280,3.0,6.0,87,0.00,CLR,,0.00,WeatherDisplay:10.37,2013-05-26 04:50:00,
2013-05-26 06:00:00,44.4,40.8,29.94,WNW,292,1.0,3.0,87,0.00,CLR,,0.00,WeatherDisplay:10.37,2013-05-26 05:00:00,
2013-05-26 06:10:00,46.8,43.4,29.94,WNW,300,0.0,4.0,88,0.00,CLR,,0.00,WeatherDisplay:10.37,2013-05-26 05:10:00,
2013-05-26 06:20:00,51.9,49.0,29.94,WNW,292,0.0,3.0,90,0.00,CLR,,0.00,WeatherDisplay:10.37,2013-05-26 05:20:00,
2013-05-26 06:30:00,56.0,53.1,29.94,WNW,292,1.0,3.0,90,0.00,CLR,,0.00,WeatherDisplay:10.37,2013-05-26 05:30:00,
2013-05-26 06:40:00,59.7,53.9,29.94,WNW,292,0.0,3.0,81,0.00,CLR,,0.00,WeatherDisplay:10.37,2013-05-26 05:40:00,
2013-05-26 06:50:00,60.3,50.0,29.93,NW,305,7.0,9.0,69,0.00,CLR,,0.00,WeatherDisplay:10.37,2013-05-26 05:50:00,
2013-05-26 07:00:00,55.8,43.0,29.94,WNW,284,5.0,9.0,62,0.00,CLR,,0.00,WeatherDisplay:10.37,2013-05-26 06:00:00,
2013-05-26 07:10:00,52.8,42.5,29.93,WNW,295,6.0,11.0,68,0.00,CLR,,0.00,WeatherDisplay:10.37,2013-05-26 06:10:00,
2013-05-26 07:20:00,52.5,43.0,29.93,WNW,292,8.0,11.0,70,0.00,CLR,,0.00,WeatherDisplay:10.37,2013-05-26 06:20:00,
2013-05-26 07:30:00,52.0,43.3,29.93,WNW,287,8.0,9.0,72,0.00,CLR,,0.00,WeatherDisplay:10.37,2013-05-26 06:30:00,
2013-05-26 07:40:00,51.6,43.3,29.94,WNW,287,7.0,14.0,73,0.00,CLR,,0.00,WeatherDisplay:10.37,2013-05-26 06:40:00,
2013-05-26 07:50:00,51.6,43.6,29.93,WNW,283,7.0,10.0,74,0.00,CLR,,0.00,WeatherDisplay:10.37,2013-05-26 06:50:00,
2013-05-26 08:00:00,52.0,44.3,29.94,WNW,284,5.0,12.0,75,0.00,CLR,,0.00,WeatherDisplay:10.37,2013-05-26 07:00:00,
2013-05-26 08:10:00,52.2,44.5,29.93,WNW,289,8.0,12.0,75,0.00,CLR,,0.00,WeatherDisplay:10.37,2013-05-26 07:10:00,
2013-05-26 08:20:00,52.2,43.8,29.93,West,279,5.0,10.0,73,0.00,CLR,,0.00,WeatherDisplay:10.37,2013-05-26 07:20:00,
2013-05-26 08:30:00,52.7,44.3,29.94,West,277,7.0,8.0,73,0.00,CLR,,0.00,WeatherDisplay:10.37,2013-05-26 07:30:00,
2013-05-26 08:40:00,53.3,44.5,29.93,West,278,3.0,9.0,72,0.00,CLR,,0.00,WeatherDisplay:10.37,2013-05-26 07:40:00,
2013-05-26 08:50:00,53.8,44.6,29.93,West,272,6.0,12.0,71,0.00,CLR,,0.00,WeatherDisplay:10.37,2013-05-26 07:50:00,
2013-05-26 09:00:00,53.2,43.7,29.93,West,279,8.0,11.0,70,0.00,CLR,,0.00,WeatherDisplay:10.37,2013-05-26 08:00:00,
2013-05-26 09:10:00,53.3,43.8,29.93,WNW,292,7.0,11.0,70,0.00,CLR,,0.00,WeatherDisplay:10.37,2013-05-26 08:10:00,
2013-05-26 09:20:00,54.1,44.2,29.93,WNW,293,6.0,11.0,69,0.00,CLR,,0.00,WeatherDisplay:10.37,2013-05-26 08:20:00,
2013-05-26 09:30:00,55.6,45.9,29.93,West,277,5.0,10.0,70,0.00,CLR,,0.00,WeatherDisplay:10.37,2013-05-26 08:30:00,
2013-05-26 09:40:00,59.5,46.9,29.92,WSW,251,5.0,12.0,63,0.00,CLR,,0.00,WeatherDisplay:10.37,2013-05-26 08:40:00,
2013-05-26 09:50:00,61.3,45.4,29.92,West,269,8.0,11.0,56,0.00,CLR,,0.00,WeatherDisplay:10.37,2013-05-26 08:50:00,
2013-05-26 10:00:00,59.0,43.3,29.92,West,277,5.0,10.0,56,0.00,CLR,,0.00,WeatherDisplay:10.37,2013-05-26 09:00:00,
2013-05-26 10:10:00,57.3,42.6,29.92,West,268,6.0,11.0,58,0.00,CLR,,0.00,WeatherDisplay:10.37,2013-05-26 09:10:00,
2013-05-26 10:20:00,55.9,42.2,29.92,WNW,286,7.0,12.0,60,0.00,CLR,,0.00,WeatherDisplay:10.37,2013-05-26 09:20:00,
2013-05-26 10:30:00,56.6,44.6,29.91,WNW,294,6.0,10.0,64,0.00,CLR,,0.00,WeatherDisplay:10.37,2013-05-26 09:30:00,
2013-05-26 10:40:00,57.0,44.1,29.91,West,263,6.0,10.0,62,0.00,CLR,,0.00,WeatherDisplay:10.37,2013-05-26 09:40:00,
2013-05-26 10:50:00,58.5,44.2,29.91,SW,235,6.0,12.0,59,0.00,CLR,,0.00,WeatherDisplay:10.37,2013-05-26 09:50:00,
2013-05-26 11:00:00,59.1,43.8,29.90,WSW,244,3.0,14.0,57,0.00,CLR,,0.00,WeatherDisplay:10.37,2013-05-26 10:00:00,
2013-05-26 11:10:00,58.6,43.4,29.90,WSW,240,5.0,11.0,57,0.00,CLR,,0.00,WeatherDisplay:10.37,2013-05-26 10:10:00,
2013-05-26 11:20:00,57.7,43.1,29.90,SW,235,2.0,11.0,58,0.00,CLR,,0.00,WeatherDisplay:10.37,2013-05-26 10:20:00,
2013-05-26 11:30:00,58.6,43.4,29.90,WSW,248,2.0,7.0,57,0.00,CLR,,0.00,WeatherDisplay:10.37,2013-05-26 10:30:00,
2013-05-26 11:40:00,57.6,42.4,29.90,WSW,253,3.0,6.0,57,0.00,CLR,,0.00,WeatherDisplay:10.37,2013-05-26 10:40:00,
2013-05-26 11:50:00,57.0,42.4,29.89,SW,232,3.0,13.0,58,0.00,CLR,,0.00,WeatherDisplay:10.37,2013-05-26 10:50:00,
2013-05-26 12:00:00,56.0,42.3,29.89,SW,215,8.0,12.0,60,0.00,CLR,,0.00,WeatherDisplay:10.37,2013-05-26 11:00:00,
2013-05-26 12:10:00,55.2,42.4,29.89,SW,223,5.0,12.0,62,0.00,CLR,,0.00,WeatherDisplay:10.37,2013-05-26 11:10:00,
2013-05-26 12:20:00,55.7,43.3,29.89,WSW,242,8.0,12.0,63,0.00,CLR,,0.00,WeatherDisplay:10.37,2013-05-26 11:20:00,
2013-05-26 12:30:00,55.8,43.3,29.89,WSW,237,5.0,10.0,63,0.00,CLR,,0.00,WeatherDisplay:10.37,2013-05-26 11:30:00,
2013-05-26 12:40:00,56.3,43.0,29.88,West,263,3.0,15.0,61,0.00,CLR,,0.00,WeatherDisplay:10.37,2013-05-26 11:40:00,
2013-05-26 12:50:00,56.8,44.0,29.88,West,260,2.0,6.0,62,0.00,CLR,,0.00,WeatherDisplay:10.37,2013-05-26 11:50:00,
2013-05-26 13:00:00,56.8,42.7,29.88,WSW,239,5.0,11.0,59,0.00,CLR,,0.00,WeatherDisplay:10.37,2013-05-26 12:00:00,
2013-05-26 13:10:00,56.8,42.7,29.88,West,266,5.0,8.0,59,0.00,CLR,,0.00,WeatherDisplay:10.37,2013-05-26 12:10:00,
2013-05-26 13:20:00,56.3,42.1,29.88,West,275,6.0,12.0,59,0.00,CLR,,0.00,WeatherDisplay:10.37,2013-05-26 12:20:00,
2013-05-26 13:30:00,57.6,44.2,29.87,West,278,6.0,12.0,61,0.00,CLR,,0.00,WeatherDisplay:10.37,2013-05-26 12:30:00,
2013-05-26 13:40:00,60.0,44.7,29.87,SW,235,5.0,12.0,57,0.00,CLR,,0.00,WeatherDisplay:10.37,2013-05-26 12:40:00,
2013-05-26 13:50:00,61.2,44.9,29.87,SW,226,9.0,13.0,55,0.00,CLR,,0.00,WeatherDisplay:10.37,2013-05-26 12:50:00,
2013-05-26 14:00:00,59.8,41.7,29.86,SSW,213,9.0,15.0,51,0.00,CLR,,0.00,WeatherDisplay:10.37,2013-05-26 13:00:00,
2013-05-26 14:10:00,58.6,41.5,29.86,SW,225,6.0,10.0,53,0.00,CLR,,0.00,WeatherDisplay:10.37,2013-05-26 13:10:00,
2013-05-26 14:20:00,56.6,41.0,29.86,SW,225,7.0,13.0,56,0.00,CLR,,0.00,WeatherDisplay:10.37,2013-05-26 13:20:00,
2013-05-26 14:30:00,56.7,42.5,29.85,SSW,210,2.0,9.0,59,0.00,CLR,,0.00,WeatherDisplay:10.37,2013-05-26 13:30:00,
2013-05-26 14:40:00,58.1,43.4,29.85,WSW,258,5.0,6.0,58,0.00,CLR,,0.00,WeatherDisplay:10.37,2013-05-26 13:40:00,
2013-05-26 14:50:00,60.0,45.2,29.84,West,261,3.0,9.0,58,0.00,CLR,,0.00,WeatherDisplay:10.37,2013-05-26 13:50:00,
2013-05-26 15:00:00,62.7,45.3,29.84,WSW,258,6.0,15.0,53,0.00,CLR,,0.00,WeatherDisplay:10.37,2013-05-26 14:00:00,
2013-05-26 15:10:00,64.2,45.1,29.84,West,260,3.0,13.0,50,0.00,CLR,,0.00,WeatherDisplay:10.37,2013-05-26 14:10:00,
2013-05-26 15:20:00,65.0,44.3,29.83,WSW,247,8.0,12.0,47,0.00,CLR,,0.00,WeatherDisplay:10.37,2013-05-26 14:20:00,
2013-05-26 15:30:00,65.5,44.7,29.83,West,259,6.0,12.0,47,0.00,CLR,,0.00,WeatherDisplay:10.37,2013-05-26 14:30:00,
2013-05-26 15:40:00,65.2,43.9,29.83,WNW,282,6.0,11.0,46,0.00,CLR,,0.00,WeatherDisplay:10.37,2013-05-26 14:40:00,
2013-05-26 15:50:00,64.6,44.4,29.82,WSW,251,7.0,15.0,48,0.00,CLR,,0.00,WeatherDisplay:10.37,2013-05-26 14:50:00,
2013-05-26 16:00:00,65.3,44.5,29.81,West,269,5.0,10.0,47,0.00,CLR,,0.00,WeatherDisplay:10.37,2013-05-26 15:00:00,
2013-05-26 16:10:00,62.9,41.8,29.81,WSW,246,7.0,17.0,46,0.00,CLR,,0.00,WeatherDisplay:10.37,2013-05-26 15:10:00,
2013-05-26 16:20:00,61.9,41.4,29.81,WSW,246,7.0,16.0,47,0.00,CLR,,0.00,WeatherDisplay:10.37,2013-05-26 15:20:00,
2013-05-26 16:30:00,61.2,40.8,29.81,WSW,253,7.0,16.0,47,0.00,CLR,,0.00,WeatherDisplay:10.37,2013-05-26 15:30:00,
2013-05-26 16:40:00,60.3,39.9,29.80,West,260,5.0,14.0,47,0.00,CLR,,0.00,WeatherDisplay:10.37,2013-05-26 15:40:00,
2013-05-26 16:50:00,59.5,39.3,29.80,West,264,9.0,16.0,47,0.00,CLR,,0.00,WeatherDisplay:10.37,2013-05-26 15:50:00,
2013-05-26 17:00:00,58.5,39.9,29.80,WSW,252,3.0,12.0,50,0.00,CLR,,0.00,WeatherDisplay:10.37,2013-05-26 16:00:00,
2013-05-26 17:10:00,58.7,42.1,29.79,West,262,5.0,10.0,54,0.00,CLR,,0.00,WeatherDisplay:10.37,2013-05-26 16:10:00,
2013-05-26 17:20:00,58.6,42.0,29.79,WSW,250,6.0,8.0,54,0.00,CLR,,0.00,WeatherDisplay:10.37,2013-05-26 16:20:00,
2013-05-26 17:30:00,58.5,41.9,29.78,WSW,255,2.0,12.0,54,0.00,CLR,,0.00,WeatherDisplay:10.37,2013-05-26 16:30:00,
2013-05-26 17:40:00,59.2,42.0,29.78,SW,227,9.0,14.0,53,0.00,CLR,,0.00,WeatherDisplay:10.37,2013-05-26 16:40:00,
2013-05-26 17:50:00,59.2,41.6,29.78,WSW,253,5.0,13.0,52,0.00,CLR,,0.00,WeatherDisplay:10.37,2013-05-26 16:50:00,
2013-05-26 18:00:00,58.3,40.7,29.77,WSW,257,6.0,11.0,52,0.00,CLR,,0.00,WeatherDisplay:10.37,2013-05-26 17:00:00,
2013-05-26 18:10:00,57.9,40.9,29.77,WSW,240,3.0,14.0,53,0.00,CLR,,0.00,WeatherDisplay:10.37,2013-05-26 17:10:00,
2013-05-26 18:20:00,57.4,41.3,29.77,WSW,250,3.0,9.0,55,0.00,CLR,,0.00,WeatherDisplay:10.37,2013-05-26 17:20:00,
2013-05-26 18:30:00,57.0,41.5,29.76,WSW,237,5.0,9.0,56,0.00,CLR,,0.00,WeatherDisplay:10.37,2013-05-26 17:30:00,
2013-05-26 18:40:00,56.8,41.7,29.76,SW,216,6.0,13.0,57,0.00,CLR,,0.00,WeatherDisplay:10.37,2013-05-26 17:40:00,
2013-05-26 18:50:00,56.7,41.6,29.75,SW,236,5.0,10.0,57,0.00,CLR,,0.00,WeatherDisplay:10.37,2013-05-26 17:50:00,
2013-05-26 19:00:00,56.8,42.2,29.75,West,267,2.0,8.0,58,0.00,CLR,,0.00,WeatherDisplay:10.37,2013-05-26 18:00:00,
2013-05-26 19:10:00,56.7,42.0,29.75,WSW,255,5.0,9.0,58,0.00,CLR,,0.00,WeatherDisplay:10.37,2013-05-26 18:10:00,
2013-05-26 19:20:00,56.4,42.2,29.75,WSW,241,8.0,12.0,59,0.00,CLR,,0.00,WeatherDisplay:10.37,2013-05-26 18:20:00,
2013-05-26 19:30:00,55.9,42.2,29.74,SW,226,7.0,10.0,60,0.00,CLR,,0.00,WeatherDisplay:10.37,2013-05-26 18:30:00,
2013-05-26 19:40:00,55.7,42.4,29.74,WSW,240,2.0,11.0,61,0.00,CLR,,0.00,WeatherDisplay:10.37,2013-05-26 18:40:00,
2013-05-26 19:50:00,55.1,42.3,29.73,SW,215,3.0,8.0,62,0.00,CLR,,0.00,WeatherDisplay:10.37,2013-05-26 18:50:00,
2013-05-26 20:00:00,54.6,42.3,29.73,SW,216,3.0,10.0,63,0.00,CLR,,0.00,WeatherDisplay:10.37,2013-05-26 19:00:00,
2013-05-26 20:10:00,54.3,42.4,29.72,SW,226,1.0,5.0,64,0.00,CLR,,0.00,WeatherDisplay:10.37,2013-05-26 19:10:00,
2013-05-26 20:20:00,54.0,42.5,29.72,SSW,205,2.0,8.0,65,0.00,CLR,,0.00,WeatherDisplay:10.37,2013-05-26 19:20:00,
2013-05-26 20:30:00,54.1,43.0,29.71,SW,217,5.0,7.0,66,0.00,CLR,,0.00,WeatherDisplay:10.37,2013-05-26 19:30:00,
2013-05-26 20:40:00,53.8,42.7,29.70,SW,220,2.0,5.0,66,0.00,CLR,,0.00,WeatherDisplay:10.37,2013-05-26 19:40:00,
2013-05-26 20:50:00,53.2,42.2,29.70,SW,220,1.0,6.0,66,0.00,CLR,,0.00,WeatherDisplay:10.37,2013-05-26 19:50:00,
2013-05-26 21:00:00,52.7,42.0,29.70,SW,225,8.0,14.0,67,0.00,CLR,,0.00,WeatherDisplay:10.37,2013-05-26 20:00:00,
2013-05-26 21:10:00,52.4,41.8,29.70,SW,221,7.0,13.0,67,0.00,CLR,,0.00,WeatherDisplay:10.37,2013-05-26 20:10:00,
2013-05-26 21:20:00,51.8,40.4,29.70,SSW,194,1.0,8.0,65,0.00,CLR,,0.00,WeatherDisplay:10.37,2013-05-26 20:20:00,
2013-05-26 21:30:00,51.3,39.9,29.69,SSW,211,7.0,13.0,65,0.00,CLR,,0.00,WeatherDisplay:10.37,2013-05-26 20:30:00,
2013-05-26 21:40:00,50.9,39.1,29.70,SW,219,5.0,15.0,64,0.00,CLR,,0.00,WeatherDisplay:10.37,2013-05-26 20:40:00,
2013-05-26 21:50:00,50.7,39.0,29.69,SSW,199,7.0,13.0,64,0.00,CLR,,0.00,WeatherDisplay:10.37,2013-05-26 20:50:00,
2013-05-26 22:00:00,50.2,38.1,29.69,South,182,6.0,16.0,63,0.00,CLR,,0.00,WeatherDisplay:10.37,2013-05-26 21:00:00,
2013-05-26 22:10:00,49.3,36.8,29.68,SSW,212,3.0,6.0,62,0.00,CLR,,0.00,WeatherDisplay:10.37,2013-05-26 21:10:00,
2013-05-26 22:20:00,49.1,36.2,29.68,SW,221,6.0,15.0,61,0.00,CLR,,0.00,WeatherDisplay:10.37,2013-05-26 21:20:00,
2013-05-26 22:30:00,48.4,36.0,29.67,SSW,198,2.0,7.0,62,0.00,CLR,,0.00,WeatherDisplay:10.37,2013-05-26 21:30:00,
2013-05-26 22:40:00,48.4,37.2,29.67,SSW,210,7.0,11.0,65,0.00,CLR,,0.00,WeatherDisplay:10.37,2013-05-26 21:40:00,
2013-05-26 22:50:00,48.9,38.4,29.66,SSW,210,7.0,15.0,67,0.00,CLR,,0.00,WeatherDisplay:10.37,2013-05-26 21:50:00,
2013-05-26 23:00:00,49.1,38.6,29.66,SSW,196,2.0,9.0,67,0.00,CLR,,0.00,WeatherDisplay:10.37,2013-05-26 22:00:00,
2013-05-26 23:10:00,48.6,38.6,29.66,South,177,2.0,9.0,68,0.00,CLR,,0.00,WeatherDisplay:10.37,2013-05-26 22:10:00,
2013-05-26 23:20:00,48.0,38.0,29.66,South,185,2.0,7.0,68,0.00,CLR,,0.00,WeatherDisplay:10.37,2013-05-26 22:20:00,
2013-05-26 23:30:00,47.7,38.4,29.65,SSW,195,8.0,13.0,70,0.00,CLR,,0.00,WeatherDisplay:10.37,2013-05-26 22:30:00,
2013-05-26 23:40:00,47.7,38.4,29.64,South,179,2.0,13.0,70,0.00,CLR,,0.00,WeatherDisplay:10.37,2013-05-26 22:40:00,
2013-05-26 23:50:00,47.4,38.1,29.64,SW,228,2.0,17.0,70,0.00,CLR,,0.00,WeatherDisplay:10.37,2013-05-26 22:50:00,